Wye River — WDE3583 — position and weather

sailwx.info

Track history (hours):
 
Tides and Currents Weather Stations Pressure Air Temp Water Temp Dewpoint Dewpoint Depression Visibility Wind Speed Wind Dir Waves Ship Positions

Wye River

Owner: Vane Line Bunkering, Inc., Baltimore, MD. More information available from US FCC via Universal Licensing System and Coast Guard Vessel Documentation Center.

Last reported at 2015-Jun-28 16:26 UTC. Time now 2015-Jul-05 02:43 UTC.
Position N 27°41' W 082°34'.

Length 30 m; draft 4.3 m.

Type: Towing. MMSI: 367341190.

Date/timePositionNaut miles runAvg speedWind from/ knotsBaromVisibWave heightAir tempDewpointWater temp
2015-Jun-28 16:26N 27°41' W 082°34'8 9.3
2015-Jun-28 15:33N 27°48' W 082°29'8 7.5
2015-Jun-28 14:33N 27°55' W 082°27'0 0.0
2015-Jun-28 13:33N 27°55' W 082°27'1 0.9
2015-Jun-28 12:33N 27°56' W 082°26'0 0.2
2015-Jun-28 11:33N 27°56' W 082°26'0 0.0
2015-Jun-28 10:33N 27°56' W 082°26'0 0.0
2015-Jun-28 09:33N 27°56' W 082°26'0 0.0
2015-Jun-28 08:33N 27°56' W 082°26'0 0.0
2015-Jun-28 07:33N 27°56' W 082°26'0 0.0
2015-Jun-28 06:33N 27°56' W 082°26'0 0.0
2015-Jun-28 05:33N 27°56' W 082°26'0 0.0
2015-Jun-28 04:33N 27°56' W 082°26'0 0.0
2015-Jun-28 03:33N 27°56' W 082°26'0 0.0
2015-Jun-28 02:33N 27°56' W 082°26'1 1.0
2015-Jun-28 01:33N 27°55' W 082°27'6 5.9
2015-Jun-28 00:33N 27°49' W 082°27'  
2015-Jun-22 14:18N 29°44' W 095°07'4 5.5
2015-Jun-22 13:34N 29°44' W 095°02'8 7.5
2015-Jun-22 12:33N 29°37' W 094°58'  
Track history (hours):
 
Tides and Currents Weather Stations Pressure Air Temp Water Temp Dewpoint Dewpoint Depression Visibility Wind Speed Wind Dir Waves Ship Positions

Wye River

Owner: Vane Line Bunkering, Inc., Baltimore, MD. More information available from US FCC via Universal Licensing System and Coast Guard Vessel Documentation Center.

Last reported at 2015-Jun-28 16:26 UTC. Time now 2015-Jul-05 02:43 UTC.
Position N 27°41' W 082°34'.

Length 30 m; draft 4.3 m.

Type: Towing. MMSI: 367341190.

Date/timePositionNaut miles runAvg speedWind from/ knotsBaromVisibWave heightAir tempDewpointWater temp
2015-Jun-28 16:26N 27°41' W 082°34'8 9.3
2015-Jun-28 15:33N 27°48' W 082°29'8 7.5
2015-Jun-28 14:33N 27°55' W 082°27'0 0.0
2015-Jun-28 13:33N 27°55' W 082°27'1 0.9
2015-Jun-28 12:33N 27°56' W 082°26'0 0.2
2015-Jun-28 11:33N 27°56' W 082°26'0 0.0
2015-Jun-28 10:33N 27°56' W 082°26'0 0.0
2015-Jun-28 09:33N 27°56' W 082°26'0 0.0
2015-Jun-28 08:33N 27°56' W 082°26'0 0.0
2015-Jun-28 07:33N 27°56' W 082°26'0 0.0
2015-Jun-28 06:33N 27°56' W 082°26'0 0.0
2015-Jun-28 05:33N 27°56' W 082°26'0 0.0
2015-Jun-28 04:33N 27°56' W 082°26'0 0.0
2015-Jun-28 03:33N 27°56' W 082°26'0 0.0
2015-Jun-28 02:33N 27°56' W 082°26'1 1.0
2015-Jun-28 01:33N 27°55' W 082°27'6 5.9
2015-Jun-28 00:33N 27°49' W 082°27'  
2015-Jun-22 14:18N 29°44' W 095°07'4 5.5
2015-Jun-22 13:34N 29°44' W 095°02'8 7.5
2015-Jun-22 12:33N 29°37' W 094°58'  

Dump ship's entire track history